Главная страница
METAR-TAF:

METAR-TAF

Аэропорты :

Элиста, Россия

широта: 46-22N, долгота: 044-20E, высота над уровнем моря: 150 м

Текущие метеонаблюдения

Эта сводка был подготовлена 37 минут назад, в 19:00 UTC
Ветер 12 Узел от юго-юго-восточный
Температура 8°C
Влажность 57%
Давление 1030 hPa
Видимость 10 км и более

METAR: URWI 261900Z AUTO 15006MPS 9999 // NCD 08/M00 Q1030

Время: 22:37 (19:37 UTC)

Прогноз

Эта сводка был подготовлена 8 часа и 37 минут назад, в 11:00 UTC
Прогноз действительный с 26-го 12 UTC до 26-го 21 UTC
Ветер 10 Узел от юго-юго-восточный с порывами до 23 Узел
Видимость 10 км и более
Отдельные облака на высоте 1500 фута
временами
С 26-го 12 UTC до 26-го 21 UTC
Ветер 8 Узел от южный с порывами до 19 Узел

TAF: URWI 261100Z 2612/2621 15005G12MPS 9999 SCT015 TEMPO 2612/2621 18004G10MPS

Метеонаблюдения и прогнозы для более 4000 аэропортов (сводки METAR и TAF).

Имеющиеся станции представлены на карте желтыми и красными точками.

Чтобы увидеть название станции, наведите на нее мышь.

Затем щелкните, чтобы увидеть метеонаблюдения и метеопрогнозы.

Управление картой: чтобы увеличить масштаб, щелкните зеленые кнопки с черным крестиком; чтобы уменьшить масштаб, щелкните зеленую кнопку с тире; для просмотра соседних карт щелкайте зеленые стрелки.


METAR-TAF: